Relevés horaires Matro (Suisse)


Relevés horaires à Matro - Samedi 05 Sept. 2026
Heure UTC1 Température [°C] Vent [km/h] Hum. [%] Pres.4 [hPa] Visi. [Km] Nébu. [octa] Préc.5 [mm] Cond.
2m. Res. Ros. Dir.2 Vit. Moy. Raf.3
23:00 11.7 8.7 4.1 NNO 31.5 -- 42.6 60 850(0.1/3h) -- -- -- --
22:00 11.9 9 4.4 NNO 31.5 -- 40.7 60 850(0.6/3h) -- -- -- --
21:00 12.4 9.7 4.2 NNO 29.6 -- 55.6 57 850(1.2/3h) -- -- -- --
20:00 12.8 10.1 4.1 NNO 31.5 -- 50.0 55 850(1.3/3h) -- -- -- --
19:00 13.0 10.3 4.1 NNO 33.3 -- 55.6 55 850(1.0/3h) -- -- -- --
18:00 13.6 10.6 3.4 NNO 44.4 -- 57.4 50 850(0.2/3h) -- -- -- --
17:00 14.2 11.7 3.7 NNO 37.0 -- 51.9 49 850(-0.1/3h) -- -- -- --
16:00 14.5 12 3.4 NO 40.7 -- 51.9 47 850(-0.4/3h) -- -- -- --
15:00 15.3 14.2 3.4 NO 18.5 -- 33.3 45 850(-0.3/3h) -- -- -- --
14:00 14.7 13.6 2.9 NNO 16.7 -- 27.8 45 850(-0.2/3h) -- -- -- --
13:00 14.6 13.4 4.0 NNO 16.7 -- 31.5 49 850(0.4/3h) -- -- -- --
12:00 14.2 13.1 4.7 NNO 14.8 -- 46.3 53 850(0.9/3h) -- -- -- --
11:00 13.8 12.3 4.4 NNO 18.5 -- 46.3 53 850(1.2/3h) -- -- -- --
10:00 14.1 12.8 4.2 NNO 16.7 -- 27.8 51 850(1.1/3h) -- -- -- --
09:00 14.1 13.6 3.2 NNO 9.3 -- 38.9 48 850(1.0/3h) -- -- -- --
08:00 13.7 11.8 2.7 NNO 24.1 -- 35.2 47 850(0.9/3h) -- -- -- --
07:00 13.4 11.3 2.4 NNO 25.9 -- 38.9 47 850(0.7/3h) -- -- -- --
06:00 13.3 10.9 3.1 NNO 29.6 -- 37.0 50 850(0.3/3h) -- -- -- --
05:00 13.9 12.1 3.1 NNO 22.2 -- 33.3 48 850(-0.3/3h) -- -- -- --
04:00 14.0 12 3.2 NNO 25.9 -- 31.5 48 850(-0.7/3h) -- -- -- --
03:00 14.2 12.6 4.5 NNO 20.4 -- 25.9 52 850(-0.9/3h) -- -- -- --
02:00 14.0 12.9 6.0 NNO 14.8 -- 18.5 58 850(-0.7/3h) -- -- -- --
01:00 13.6 13 6.1 NNO 9.3 -- 18.5 60 850(-0.6/3h) -- -- -- --
00:00 13.7 13.2 7.0 ONO 9.3 -- 27.8 64 850(-0.6/3h) -- -- -- --

1 Coordinated Universal Time. Actuellement il est 07:00 locale et 05:00 UTC.

2 Le vent souffle depuis la direction indiquée vers la direction oposée.

3 Les rafales max. sont disponible 40 min après l'heure du relevé.

4 Pour les stations d'altitude (plus de 600m) le géopotentiel du niveau le plus proche de la pression obligatoire est indiqué.

5 Les stations disposant d'un diffuseur peuvent indiquer "trace". Cela signifie que des précipitations ont touchés le sol mais que la quantité est inférieure à 0.1 mm.

Copyright

Les données affichées sur cette page sont la propriété exclusive de Météo Suisse.

Récapitulatif de la journée
Température [°C] Vent [km/h] Ensoleillement4 [h] Precipitations totale5 [mm] Pression [Hpa]
Min1 Max.2 Moy.3 Max. Min Max.
13.1 15.3 0 57.4 0 h 0 min 0 850.0 850.0

1 Température minimale relevée entre 18:00 UTC la veille et 18:00 UTC le jour donné.

2 Température maximale relevée entre 06:00 UTC le jour donné et 06:00 UTC le lendemain.

3 Vent moyen de la journée basé sur les relevés horaires.

4 Ensoleillement en heures relevé entre 06:00 UTC la veille et 06:00 UTC le jour donné.

5 Précipitations totales tombées entre 06:00 UTC la jour donné et 06:00 UTC le lendemain.

Graphiques horaires